Time;durP1;ratioP1;P1;durP2;ratioP2;P2;SDS_P1;SDS_P2;PMS_P1;PMS_P2;Temp;Humidity;BMP_temperature;BMP_pressure;BME280_temperature;BME280_humidity;BME280_pressure;Samples;Min_cycle;Max_cycle;Signal;HPM_P1;HPM_P2
2023/07/14 04:00:33;;;;;;;3.60;0.67;;;19.80;1.00;;;;;;5976995;23;21883;-74
2023/07/14 04:03:01;;;;;;;0.97;0.40;;;19.70;1.00;;;;;;5012355;28;20452;-73
2023/07/14 04:05:29;;;;;;;0.60;0.10;;;19.70;1.00;;;;;;5014252;28;20558;-73
2023/07/14 04:07:57;;;;;;;0.60;0.10;;;19.70;1.00;;;;;;5013772;28;20494;-72
2023/07/14 04:10:25;;;;;;;0.70;0.40;;;19.70;1.00;;;;;;5009936;28;20452;-73
2023/07/14 04:12:53;;;;;;;0.60;0.20;;;19.70;1.00;;;;;;5003124;28;20471;-73
2023/07/14 04:15:21;;;;;;;0.60;0.10;;;;;;;;;;4994370;28;20437;-73
2023/07/14 04:17:51;;;;;;;0.60;0.20;;;19.70;1.00;;;;;;5011424;23;20536;-69
2023/07/14 04:20:19;;;;;;;0.60;0.10;;;19.80;1.00;;;;;;5016610;28;20479;-69
2023/07/14 04:22:47;;;;;;;0.60;0.10;;;19.80;1.00;;;;;;5024291;28;20502;-69
2023/07/14 04:25:15;;;;;;;0.60;0.10;;;19.80;1.00;;;;;;5012572;28;20456;-69
2023/07/14 04:27:43;;;;;;;0.60;0.10;;;19.80;1.00;;;;;;5025957;28;20473;-69
2023/07/14 04:30:12;;;;;;;0.60;0.20;;;19.80;1.00;;;;;;4994394;28;20455;-70
2023/07/14 04:32:42;;;;;;;0.60;0.20;;;19.80;1.00;;;;;;5013148;28;20467;-69
2023/07/14 04:35:12;;;;;;;0.60;0.10;;;;;;;;;;5020586;28;20443;-70
2023/07/14 04:37:40;;;;;;;0.60;0.10;;;19.70;1.00;;;;;;5026528;28;20463;-70
2023/07/14 04:40:09;;;;;;;0.60;0.10;;;19.60;1.00;;;;;;5018749;28;20520;-70
2023/07/14 04:42:57;;;;;;;0.60;0.10;;;19.60;1.00;;;;;;5033297;28;20455;-69
2023/07/14 04:45:24;;;;;;;0.60;0.10;;;19.50;1.00;;;;;;5033011;28;20506;-70
2023/07/14 04:47:53;;;;;;;0.60;0.10;;;19.40;1.00;;;;;;5022336;28;20484;-69
2023/07/14 04:50:22;;;;;;;0.60;0.10;;;19.30;1.00;;;;;;5007878;28;20440;-70
2023/07/14 04:52:50;;;;;;;0.60;0.13;;;19.30;1.00;;;;;;5016609;28;20868;-69
2023/07/14 04:55:18;;;;;;;0.60;0.10;;;19.30;1.00;;;;;;4996110;28;20987;-69
2023/07/14 04:57:47;;;;;;;0.70;0.43;;;19.30;1.00;;;;;;4997226;28;20556;-70
2023/07/14 05:00:17;;;;;;;0.60;0.10;;;19.30;1.00;;;;;;4996370;28;20488;-70
2023/07/14 05:02:45;;;;;;;0.60;0.20;;;19.30;1.00;;;;;;5011929;28;21018;-70
2023/07/14 05:05:18;;;;;;;1.67;1.23;;;19.40;1.00;;;;;;5012328;28;20451;-69
2023/07/14 05:07:48;;;;;;;0.60;0.17;;;19.40;1.00;;;;;;5012190;28;20464;-69
2023/07/14 05:10:16;;;;;;;0.60;0.10;;;19.40;1.00;;;;;;5012465;28;20448;-70
2023/07/14 05:12:44;;;;;;;0.60;0.20;;;19.50;1.00;;;;;;5011280;28;20502;-69
2023/07/14 05:15:15;;;;;;;0.60;0.20;;;19.50;1.00;;;;;;5011783;28;20448;-70
2023/07/14 05:17:44;;;;;;;0.60;0.10;;;19.50;1.00;;;;;;5017908;28;20549;-75
2023/07/14 05:20:14;;;;;;;0.60;0.10;;;19.60;1.00;;;;;;5023508;28;20490;-75
2023/07/14 05:22:46;;;;;;;0.60;0.10;;;19.70;1.00;;;;;;5031879;28;20477;-71
2023/07/14 05:25:17;;;;;;;0.60;0.10;;;19.70;1.00;;;;;;5020037;28;20448;-73
2023/07/14 05:27:46;;;;;;;0.60;0.10;;;19.80;1.00;;;;;;5012276;28;20472;-74
2023/07/14 05:30:15;;;;;;;0.90;0.60;;;19.90;1.00;;;;;;5014579;28;20458;-74
2023/07/14 05:32:44;;;;;;;0.60;0.10;;;20.10;1.00;;;;;;5021035;28;20852;-75
2023/07/14 05:35:13;;;;;;;0.60;0.10;;;20.10;1.00;;;;;;5023032;28;20464;-75
2023/07/14 05:37:41;;;;;;;0.60;0.10;;;20.10;1.00;;;;;;5016497;28;20526;-75
2023/07/14 05:40:11;;;;;;;0.60;0.20;;;20.10;1.00;;;;;;5015396;28;20490;-76
2023/07/14 05:42:41;;;;;;;0.60;0.20;;;20.10;1.00;;;;;;5015557;28;20938;-76
2023/07/14 05:45:10;;;;;;;0.60;0.20;;;20.10;1.00;;;;;;5018557;28;20544;-75
2023/07/14 05:47:41;;;;;;;0.60;0.10;;;20.00;1.00;;;;;;5010028;28;20560;-75
2023/07/14 05:50:10;;;;;;;0.60;0.10;;;19.90;1.00;;;;;;5009621;28;20823;-73
2023/07/14 05:52:38;;;;;;;0.60;0.10;;;20.20;1.00;;;;;;5025026;28;20906;-71
2023/07/14 05:55:06;;;;;;;0.60;0.10;;;20.00;1.00;;;;;;5033950;28;20447;-70
2023/07/14 05:57:36;;;;;;;0.60;0.10;;;20.00;1.00;;;;;;5035235;28;20838;-71
2023/07/14 06:00:12;;;;;;;0.60;0.10;;;20.10;1.00;;;;;;5035654;28;20863;-71
2023/07/14 06:02:41;;;;;;;0.60;0.20;;;20.10;1.00;;;;;;5004493;28;20471;-70
2023/07/14 06:05:11;;;;;;;0.60;0.20;;;20.20;1.00;;;;;;5034924;28;20453;-69
2023/07/14 06:07:40;;;;;;;0.60;0.20;;;20.10;1.00;;;;;;5030280;28;21163;-70
2023/07/14 06:10:09;;;;;;;0.60;0.20;;;20.30;1.00;;;;;;5028464;28;20461;-69
2023/07/14 06:12:37;;;;;;;0.60;0.20;;;20.30;1.00;;;;;;5013709;28;20523;-70
2023/07/14 06:15:08;;;;;;;0.60;0.10;;;20.30;1.00;;;;;;5013947;28;20452;-71
2023/07/14 06:17:36;;;;;;;26.47;2.40;;;20.40;1.00;;;;;;5015629;28;20534;-71
2023/07/14 06:20:05;;;;;;;0.60;0.10;;;20.40;1.00;;;;;;5013395;28;20446;-70
2023/07/14 06:22:33;;;;;;;0.60;0.10;;;20.40;1.00;;;;;;5014823;28;20491;-70
2023/07/14 06:25:01;;;;;;;0.70;0.30;;;20.50;1.00;;;;;;5006606;28;20449;-70
2023/07/14 06:27:33;;;;;;;0.60;0.10;;;20.60;1.00;;;;;;4995285;28;21042;-69
2023/07/14 06:30:01;;;;;;;0.60;0.20;;;;;;;;;;4995224;28;20464;-70
2023/07/14 06:32:30;;;;;;;0.60;0.20;;;20.70;1.00;;;;;;5018356;28;21013;-69
2023/07/14 06:34:58;;;;;;;0.60;0.10;;;20.90;1.00;;;;;;5035063;28;20451;-70
2023/07/14 06:37:27;;;;;;;0.60;0.20;;;20.90;1.00;;;;;;5022949;28;20467;-69
2023/07/14 06:39:55;;;;;;;1.00;0.83;;;20.90;1.00;;;;;;5014638;28;20507;-70
2023/07/14 06:42:22;;;;;;;0.60;0.10;;;21.00;1.00;;;;;;5013777;28;20979;-69
2023/07/14 06:44:50;;;;;;;0.60;0.10;;;21.00;1.00;;;;;;5012517;28;20457;-70
2023/07/14 06:47:18;;;;;;;0.60;0.20;;;21.00;1.00;;;;;;4995925;28;20556;-69
2023/07/14 06:49:49;;;;;;;0.60;0.10;;;21.00;1.00;;;;;;5025184;28;20452;-68
2023/07/14 06:52:17;;;;;;;0.60;0.20;;;;;;;;;;5022889;28;20761;-70
2023/07/14 06:54:46;;;;;;;0.60;0.20;;;21.00;1.00;;;;;;5022898;28;20529;-69
2023/07/14 06:57:14;;;;;;;0.60;0.10;;;21.00;1.00;;;;;;5021909;28;20547;-69
2023/07/14 06:59:42;;;;;;;0.60;0.10;;;21.00;1.00;;;;;;5024909;28;20446;-68
2023/07/14 07:02:11;;;;;;;0.60;0.20;;;21.00;1.00;;;;;;5020510;28;20477;-69
2023/07/14 07:04:40;;;;;;;0.60;0.10;;;21.10;1.00;;;;;;5023178;28;20968;-69
2023/07/14 07:07:09;;;;;;;0.93;0.20;;;;;;;;;;5024101;28;20468;-68
2023/07/14 07:09:37;;;;;;;0.60;0.17;;;21.30;1.00;;;;;;5023401;28;20465;-68
2023/07/14 07:12:08;;;;;;;0.60;0.10;;;21.30;1.00;;;;;;5019798;28;20561;-69
2023/07/14 07:14:36;;;;;;;0.60;0.10;;;21.20;1.00;;;;;;5016776;28;20449;-70
2023/07/14 07:17:05;;;;;;;0.70;0.20;;;21.30;1.00;;;;;;5013067;28;20440;-70
2023/07/14 07:19:33;;;;;;;0.60;0.10;;;21.30;1.00;;;;;;5013619;28;20496;-69
2023/07/14 07:22:01;;;;;;;0.60;0.13;;;21.30;1.00;;;;;;5012280;28;20528;-68
2023/07/14 07:24:30;;;;;;;0.60;0.20;;;21.30;1.00;;;;;;5013348;28;20454;-69
2023/07/14 07:26:58;;;;;;;0.60;0.10;;;21.40;1.00;;;;;;5013672;28;20982;-68
2023/07/14 07:29:26;;;;;;;0.60;0.10;;;21.50;1.00;;;;;;5013947;28;20480;-68
2023/07/14 07:31:54;;;;;;;0.60;0.20;;;;;;;;;;5012981;28;20476;-71
2023/07/14 07:34:23;;;;;;;0.70;0.20;;;21.70;1.00;;;;;;5015976;28;20503;-68
2023/07/14 07:36:52;;;;;;;0.60;0.10;;;21.70;1.00;;;;;;5013624;28;20459;-68
2023/07/14 07:39:20;;;;;;;0.70;0.20;;;21.90;1.00;;;;;;5013520;28;21019;-69
2023/07/14 07:41:49;;;;;;;0.60;0.20;;;22.00;1.00;;;;;;5013498;28;20507;-69
2023/07/14 07:44:17;;;;;;;1.67;0.60;;;22.00;1.00;;;;;;5013086;28;20874;-69
2023/07/14 07:46:45;;;;;;;0.67;0.20;;;22.00;1.00;;;;;;5000993;28;20489;-69
2023/07/14 07:49:13;;;;;;;0.70;0.20;;;22.00;1.00;;;;;;4994605;28;20462;-68
2023/07/14 07:51:41;;;;;;;0.70;0.20;;;22.10;1.00;;;;;;4994555;28;20450;-68
2023/07/14 07:54:09;;;;;;;0.70;0.10;;;22.10;1.00;;;;;;4997165;28;20500;-69
2023/07/14 07:56:38;;;;;;;0.70;0.10;;;22.30;1.00;;;;;;5013731;28;20533;-68
2023/07/14 07:59:08;;;;;;;0.70;0.10;;;22.50;1.00;;;;;;5014956;28;20504;-72
2023/07/14 08:01:36;;;;;;;0.70;0.20;;;22.40;1.00;;;;;;5013504;28;20496;-74
2023/07/14 08:04:05;;;;;;;0.70;0.10;;;22.60;1.00;;;;;;5010131;28;20452;-73
2023/07/14 08:06:36;;;;;;;0.70;0.10;;;22.60;1.00;;;;;;4996209;28;20555;-72
2023/07/14 08:09:06;;;;;;;0.70;0.20;;;22.60;1.00;;;;;;4995869;28;20878;-70
2023/07/14 08:11:34;;;;;;;0.70;0.20;;;22.60;1.00;;;;;;5006576;28;20470;-70
2023/07/14 08:14:04;;;;;;;0.70;0.10;;;22.70;1.00;;;;;;5001480;28;20530;-72
2023/07/14 08:16:34;;;;;;;0.60;0.20;;;22.70;1.00;;;;;;5002110;28;20512;-69
2023/07/14 08:19:03;;;;;;;1.57;1.47;;;22.80;1.00;;;;;;5003984;28;20853;-68
2023/07/14 08:21:31;;;;;;;0.70;0.20;;;23.00;1.00;;;;;;4995312;28;20553;-69
2023/07/14 08:24:00;;;;;;;0.70;0.10;;;23.10;1.00;;;;;;4997237;28;20506;-70
2023/07/14 08:26:28;;;;;;;0.70;0.10;;;23.10;1.00;;;;;;4995833;28;20889;-69
2023/07/14 08:28:57;;;;;;;0.70;0.20;;;;;;;;;;5006474;28;20557;-70
2023/07/14 08:31:29;;;;;;;0.70;0.10;;;23.30;1.00;;;;;;5012795;28;20449;-72
2023/07/14 08:33:58;;;;;;;0.70;0.10;;;23.30;1.00;;;;;;5012651;28;20446;-71
2023/07/14 08:36:26;;;;;;;0.70;0.10;;;23.30;1.00;;;;;;5013114;28;20446;-72
2023/07/14 08:38:54;;;;;;;0.70;0.20;;;23.30;1.00;;;;;;5013972;28;20513;-71
2023/07/14 08:41:33;;;;;;;2.60;2.40;;;23.40;1.00;;;;;;5012500;28;20455;-70
2023/07/14 08:44:17;;;;;;;1.10;0.83;;;23.60;1.00;;;;;;5012315;28;20446;-70
2023/07/14 08:46:54;;;;;;;0.70;0.20;;;23.70;1.00;;;;;;5013814;28;20446;-71
2023/07/14 08:49:26;;;;;;;0.70;0.20;;;23.70;1.00;;;;;;5004461;28;20494;-70
2023/07/14 08:51:57;;;;;;;0.70;0.30;;;23.70;1.00;;;;;;5013294;28;20440;-70
2023/07/14 08:54:30;;;;;;;1.60;1.50;;;23.70;1.00;;;;;;5012959;28;20472;-72
2023/07/14 08:56:57;;;;;;;0.70;0.20;;;23.90;1.00;;;;;;5008292;28;20457;-71
2023/07/14 08:59:33;;;;;;;0.70;0.20;;;23.90;1.00;;;;;;5011380;28;20462;-70
2023/07/14 09:02:11;;;;;;;0.70;0.20;;;24.00;1.00;;;;;;5013763;28;20481;-69
2023/07/14 09:04:42;;;;;;;0.70;0.10;;;24.10;1.00;;;;;;5017315;28;20442;-70
2023/07/14 09:07:19;;;;;;;0.70;0.20;;;24.10;1.00;;;;;;5011014;28;20460;-72
2023/07/14 09:09:47;;;;;;;0.70;0.10;;;24.10;1.00;;;;;;4995391;28;20798;-71
2023/07/14 09:12:24;;;;;;;0.70;0.20;;;24.20;1.00;;;;;;5008865;28;20452;-71
2023/07/14 09:14:59;;;;;;;0.70;0.10;;;24.30;1.00;;;;;;5013827;28;20446;-71
2023/07/14 09:17:45;;;;;;;0.70;0.10;;;24.40;1.00;;;;;;5012574;28;21057;-70
2023/07/14 09:20:41;;;;;;;0.70;0.10;;;24.40;1.00;;;;;;5011648;28;20447;-71
2023/07/14 09:23:25;;;;;;;0.70;0.20;;;24.40;1.00;;;;;;5011635;28;21036;-71
2023/07/14 09:26:00;;;;;;;0.70;0.10;;;24.50;1.00;;;;;;5012563;28;21168;-71
2023/07/14 09:28:35;;;;;;;0.70;0.10;;;24.50;1.00;;;;;;5010708;28;20462;-71
2023/07/14 09:31:07;;;;;;;0.70;0.10;;;24.60;1.00;;;;;;5009935;28;20569;-70
2023/07/14 09:33:45;;;;;;;0.70;0.10;;;24.70;1.00;;;;;;5008143;28;20454;-72
2023/07/14 09:36:14;;;;;;;1.47;1.37;;;24.80;1.00;;;;;;5009091;28;20453;-70
2023/07/14 09:38:47;;;;;;;0.70;0.10;;;24.80;1.00;;;;;;5007070;28;20460;-70
2023/07/14 09:41:17;;;;;;;0.70;0.10;;;25.00;1.00;;;;;;5003873;28;20478;-70
2023/07/14 09:43:45;;;;;;;0.70;0.20;;;25.10;1.00;;;;;;5004719;28;20513;-71
2023/07/14 09:46:17;;;;;;;0.70;0.20;;;25.20;1.00;;;;;;5004021;28;20498;-72
2023/07/14 09:48:49;;;;;;;0.70;0.10;;;25.30;1.00;;;;;;5009653;28;20586;-71
2023/07/14 09:51:23;;;;;;;0.70;0.30;;;25.40;1.00;;;;;;5004610;28;20479;-70
2023/07/14 09:53:59;;;;;;;0.70;0.20;;;25.30;1.00;;;;;;5011397;28;20447;-70
2023/07/14 09:56:30;;;;;;;0.70;0.10;;;25.30;1.00;;;;;;4994986;28;20462;-71
2023/07/14 09:59:03;;;;;;;0.70;0.20;;;25.50;1.00;;;;;;4992184;28;20461;-70
2023/07/14 10:01:32;;;;;;;0.70;0.20;;;25.50;1.00;;;;;;4992025;28;20464;-70
2023/07/14 10:04:11;;;;;;;0.70;0.20;;;25.60;1.00;;;;;;4991814;28;20487;-71
2023/07/14 10:06:41;;;;;;;0.70;0.20;;;25.80;1.00;;;;;;4991844;28;20452;-71
2023/07/14 10:09:11;;;;;;;0.70;0.20;;;25.70;1.00;;;;;;5011581;28;20558;-72
2023/07/14 10:11:42;;;;;;;0.70;0.17;;;25.80;1.00;;;;;;5011640;28;20467;-70
2023/07/14 10:14:25;;;;;;;0.70;0.30;;;25.90;1.00;;;;;;5011551;28;20494;-71
2023/07/14 10:16:54;;;;;;;1.37;0.83;;;26.10;1.00;;;;;;5013079;28;20479;-70
2023/07/14 10:19:23;;;;;;;5.77;1.27;;;26.10;1.00;;;;;;5015748;23;20530;-71
2023/07/14 10:21:57;;;;;;;0.70;0.10;;;26.10;1.00;;;;;;5023775;28;21007;-71
2023/07/14 10:24:26;;;;;;;0.70;0.20;;;;;;;;;;5034378;28;20516;-71
2023/07/14 10:26:57;;;;;;;1.33;1.20;;;26.10;1.00;;;;;;5034956;28;20533;-71
2023/07/14 10:29:28;;;;;;;0.70;0.10;;;26.00;1.00;;;;;;5034643;28;20499;-71
2023/07/14 10:32:02;;;;;;;0.70;0.20;;;26.00;1.00;;;;;;5021213;28;20851;-71
2023/07/14 10:34:51;;;;;;;0.70;0.13;;;26.00;1.00;;;;;;5015405;28;20523;-71
2023/07/14 10:37:24;;;;;;;0.70;0.20;;;26.00;1.00;;;;;;5015242;28;20539;-72
2023/07/14 10:39:58;;;;;;;0.70;0.20;;;26.00;1.00;;;;;;5016195;28;20487;-72
2023/07/14 10:42:30;;;;;;;0.70;0.10;;;26.10;1.00;;;;;;5017549;28;20759;-72
2023/07/14 10:44:59;;;;;;;0.70;0.20;;;26.30;1.00;;;;;;5010894;28;20452;-72
2023/07/14 10:47:41;;;;;;;0.70;0.13;;;26.40;1.00;;;;;;5015394;28;20459;-71
2023/07/14 10:50:16;;;;;;;0.70;0.10;;;26.40;1.00;;;;;;5014448;28;20506;-72
2023/07/14 10:52:50;;;;;;;0.70;0.10;;;26.50;1.00;;;;;;5013920;28;20538;-73
2023/07/14 10:55:22;;;;;;;0.70;0.10;;;26.50;1.00;;;;;;5014351;28;20443;-73
2023/07/14 10:57:56;;;;;;;0.70;0.20;;;26.60;1.00;;;;;;5014045;28;20494;-72
2023/07/14 11:00:28;;;;;;;0.90;0.30;;;26.70;1.00;;;;;;5014130;28;20605;-73
2023/07/14 11:03:18;;;;;;;0.70;0.10;;;26.60;1.00;;;;;;5013910;28;20519;-71
2023/07/14 11:05:55;;;;;;;0.70;0.20;;;26.50;1.00;;;;;;5013857;28;20535;-71
2023/07/14 11:08:26;;;;;;;1.00;0.63;;;26.40;1.00;;;;;;5014072;28;20447;-72
2023/07/14 11:11:01;;;;;;;0.70;0.20;;;26.20;1.00;;;;;;5017994;28;20881;-71
2023/07/14 11:13:39;;;;;;;0.70;0.20;;;26.20;1.00;;;;;;5024837;28;20865;-71
2023/07/14 11:16:10;;;;;;;0.70;0.10;;;26.10;1.00;;;;;;5018891;28;20456;-71
2023/07/14 11:18:48;;;;;;;0.70;0.20;;;26.10;1.00;;;;;;5013926;28;20459;-72
2023/07/14 11:21:36;;;;;;;0.70;0.20;;;26.10;1.00;;;;;;5013765;28;21045;-72
2023/07/14 11:24:21;;;;;;;0.70;0.17;;;25.80;1.00;;;;;;5013282;28;20538;-72
2023/07/14 11:27:14;;;;;;;0.70;0.30;;;25.60;1.00;;;;;;5012363;28;20779;-71
2023/07/14 11:29:49;;;;;;;0.90;0.43;;;25.50;1.00;;;;;;5014269;28;20463;-70
2023/07/14 11:32:20;;;;;;;0.70;0.10;;;25.50;1.00;;;;;;5013740;28;20911;-71
2023/07/14 11:34:57;;;;;;;0.70;0.20;;;25.50;1.00;;;;;;5013551;28;20799;-71
2023/07/14 11:37:45;;;;;;;0.70;0.10;;;25.60;1.00;;;;;;5013967;28;20455;-71
2023/07/14 11:40:21;;;;;;;0.70;0.10;;;25.60;1.00;;;;;;5013677;28;20480;-72
2023/07/14 11:42:56;;;;;;;0.70;0.20;;;25.50;1.00;;;;;;5013309;28;20802;-71
2023/07/14 11:45:28;;;;;;;0.70;0.10;;;25.30;1.00;;;;;;5013620;28;20477;-71
2023/07/14 11:47:58;;;;;;;0.70;0.10;;;25.40;1.00;;;;;;5013485;28;20483;-71
2023/07/14 11:50:29;;;;;;;0.70;0.20;;;25.30;1.00;;;;;;5012957;28;20550;-71
2023/07/14 11:53:20;;;;;;;0.70;0.20;;;25.40;1.00;;;;;;5012925;28;20931;-72
2023/07/14 11:55:52;;;;;;;0.70;0.20;;;25.50;1.00;;;;;;5013298;28;20930;-71
2023/07/14 11:58:27;;;;;;;0.70;0.10;;;25.50;1.00;;;;;;5013286;28;20446;-71
2023/07/14 12:00:59;;;;;;;0.70;0.20;;;25.50;1.00;;;;;;5012738;28;20996;-70
2023/07/14 12:03:30;;;;;;;0.80;0.43;;;25.50;1.00;;;;;;5012171;28;20480;-71
2023/07/14 12:06:24;;;;;;;0.70;0.10;;;25.50;1.00;;;;;;5012919;28;20785;-71
2023/07/14 12:09:13;;;;;;;0.70;0.20;;;25.50;1.00;;;;;;5012049;28;20890;-71
2023/07/14 12:11:53;;;;;;;0.70;0.10;;;25.50;1.00;;;;;;5013440;28;20550;-71
2023/07/14 12:14:44;;;;;;;0.70;0.10;;;25.50;1.00;;;;;;5012459;28;20447;-71
2023/07/14 12:17:42;;;;;;;0.70;0.20;;;25.60;1.00;;;;;;5013280;28;20456;-71
2023/07/14 12:20:30;;;;;;;0.80;0.53;;;25.80;1.00;;;;;;5012305;28;20931;-70
2023/07/14 12:23:18;;;;;;;0.70;0.10;;;25.90;1.00;;;;;;4993376;28;20452;-70
2023/07/14 12:25:53;;;;;;;0.70;0.20;;;26.10;1.00;;;;;;4993231;28;20471;-70
2023/07/14 12:28:30;;;;;;;0.70;0.10;;;26.30;1.00;;;;;;5007215;28;20439;-70
2023/07/14 12:31:02;;;;;;;6.37;5.30;;;26.50;1.00;;;;;;5023485;28;20450;-71
2023/07/14 12:33:30;;;;;;;0.80;0.40;;;26.70;1.00;;;;;;5022469;28;20498;-72
2023/07/14 12:36:03;;;;;;;0.80;0.40;;;26.70;1.00;;;;;;5018648;28;20796;-72
2023/07/14 12:38:33;;;;;;;0.80;0.43;;;26.80;1.00;;;;;;5020830;28;20435;-72
2023/07/14 12:41:03;;;;;;;0.70;0.13;;;26.80;1.00;;;;;;4992548;28;20548;-70
2023/07/14 12:43:35;;;;;;;0.70;0.10;;;26.90;1.00;;;;;;4992186;28;20528;-73
2023/07/14 12:46:11;;;;;;;0.70;0.20;;;26.90;1.00;;;;;;5008155;28;20458;-72
2023/07/14 12:48:39;;;;;;;0.70;0.10;;;27.20;1.00;;;;;;5012757;28;21011;-73
2023/07/14 12:51:17;;;;;;;0.70;0.10;;;27.20;1.00;;;;;;5013379;28;20475;-71
2023/07/14 12:53:58;;;;;;;0.70;0.20;;;27.10;1.00;;;;;;5007511;28;20906;-72
2023/07/14 12:56:29;;;;;;;0.80;0.57;;;27.10;1.00;;;;;;5012377;28;20530;-72
2023/07/14 12:58:59;;;;;;;1.50;1.40;;;27.00;1.00;;;;;;5012551;28;20494;-72
2023/07/14 13:01:27;;;;;;;0.70;0.10;;;27.10;1.00;;;;;;5012799;28;20495;-72
2023/07/14 13:03:55;;;;;;;0.70;0.10;;;26.90;1.00;;;;;;5012007;28;20526;-72
2023/07/14 13:06:24;;;;;;;1.00;0.37;;;27.00;1.00;;;;;;5012290;28;20443;-71
2023/07/14 13:08:56;;;;;;;0.80;0.40;;;26.90;1.00;;;;;;5012149;28;20561;-72
2023/07/14 13:11:25;;;;;;;0.70;0.20;;;26.90;1.00;;;;;;5014047;28;20985;-72
2023/07/14 13:13:57;;;;;;;0.70;0.10;;;27.10;1.00;;;;;;5013068;28;20637;-73
2023/07/14 13:16:34;;;;;;;0.70;0.10;;;27.20;1.00;;;;;;5013396;28;20547;-71
2023/07/14 13:19:04;;;;;;;0.70;0.10;;;;;;;;;;5014436;28;20542;-71
2023/07/14 13:21:38;;;;;;;0.70;0.10;;;27.50;1.00;;;;;;5013132;28;20883;-72
2023/07/14 13:24:15;;;;;;;0.70;0.30;;;27.60;1.00;;;;;;5011769;28;20483;-72
2023/07/14 13:26:50;;;;;;;0.70;0.10;;;27.70;1.00;;;;;;5012091;28;20444;-72
2023/07/14 13:29:34;;;;;;;1.33;0.20;;;27.70;1.00;;;;;;5012534;28;20450;-73
2023/07/14 13:32:14;;;;;;;0.70;0.17;;;27.80;1.00;;;;;;4992748;28;20477;-72
2023/07/14 13:34:44;;;;;;;0.70;0.10;;;27.80;1.00;;;;;;4993533;28;20936;-72
2023/07/14 13:37:13;;;;;;;0.70;0.30;;;27.90;1.00;;;;;;4992558;28;20476;-72
2023/07/14 13:39:43;;;;;;;0.70;0.20;;;27.80;1.00;;;;;;4992746;28;20577;-73
2023/07/14 13:42:25;;;;;;;0.70;0.10;;;27.90;1.00;;;;;;5000125;28;20486;-72
2023/07/14 13:44:54;;;;;;;0.70;0.20;;;28.00;1.00;;;;;;5011892;28;20485;-72
2023/07/14 13:47:25;;;;;;;0.70;0.20;;;28.00;1.00;;;;;;5012069;28;20439;-72
2023/07/14 13:49:56;;;;;;;1.13;1.03;;;28.20;1.00;;;;;;5011780;28;20459;-72
2023/07/14 13:52:30;;;;;;;0.70;0.30;;;28.20;1.00;;;;;;5014081;28;20882;-73
2023/07/14 13:55:00;;;;;;;0.70;0.10;;;28.30;1.00;;;;;;5015437;28;20455;-73
2023/07/14 13:57:28;;;;;;;0.97;0.40;;;;;;;;;;5015974;28;20478;-73
2023/07/14 13:59:57;;;;;;;0.70;0.20;;;28.50;1.00;;;;;;5016222;28;20548;-73
2023/07/14 14:02:34;;;;;;;0.70;0.20;;;28.50;1.00;;;;;;5014653;28;20538;-73
2023/07/14 14:05:03;;;;;;;0.70;0.20;;;28.40;1.00;;;;;;5015504;28;20572;-72
2023/07/14 14:07:32;;;;;;;0.70;0.20;;;;;;;;;;5015490;28;20447;-72
2023/07/14 14:09:59;;;;;;;1.93;0.30;;;28.50;1.00;;;;;;5021424;28;20510;-72
2023/07/14 14:12:28;;;;;;;0.70;0.20;;;28.60;1.00;;;;;;5020939;28;20515;-72
2023/07/14 14:14:56;;;;;;;0.70;0.20;;;28.60;1.00;;;;;;5014265;28;20444;-75
2023/07/14 14:17:38;;;;;;;0.70;0.10;;;28.70;1.00;;;;;;5015279;28;20916;-72
2023/07/14 14:20:13;;;;;;;0.70;0.20;;;28.70;1.00;;;;;;5013911;28;20495;-72
2023/07/14 14:22:41;;;;;;;0.90;0.40;;;28.80;1.00;;;;;;5015374;28;20538;-72
2023/07/14 14:25:13;;;;;;;0.80;0.50;;;28.90;1.00;;;;;;5014847;28;20484;-72
2023/07/14 14:27:41;;;;;;;1.23;1.03;;;29.00;1.00;;;;;;5015727;28;20487;-72
2023/07/14 14:30:10;;;;;;;0.70;0.10;;;29.10;1.00;;;;;;5016038;28;20506;-72
2023/07/14 14:32:39;;;;;;;0.70;0.20;;;29.30;1.00;;;;;;5022964;28;20526;-71
2023/07/14 14:35:22;;;;;;;0.70;0.20;;;29.40;1.00;;;;;;5015710;28;20443;-71
2023/07/14 14:37:51;;;;;;;0.70;0.20;;;29.40;1.00;;;;;;5014682;28;20450;-72
2023/07/14 14:40:19;;;;;;;0.70;0.20;;;29.40;1.00;;;;;;5032415;28;20467;-72
2023/07/14 14:42:47;;;;;;;0.93;0.60;;;29.40;1.00;;;;;;5021975;28;20549;-72
2023/07/14 14:45:20;;;;;;;0.80;0.40;;;29.40;1.00;;;;;;5026779;28;20518;-73
2023/07/14 14:47:51;;;;;;;0.70;0.20;;;29.40;1.00;;;;;;5034955;28;20447;-70
2023/07/14 14:50:21;;;;;;;0.70;0.20;;;29.50;1.00;;;;;;5018403;28;20559;-72
2023/07/14 14:52:49;;;;;;;2.80;1.83;;;29.60;1.00;;;;;;5033688;28;21006;-72
2023/07/14 14:55:20;;;;;;;0.80;0.20;;;29.70;1.00;;;;;;5034519;28;20548;-72
2023/07/14 14:57:51;;;;;;;0.70;0.20;;;29.70;1.00;;;;;;5022385;28;20461;-72
2023/07/14 15:00:26;;;;;;;0.70;0.20;;;29.70;1.00;;;;;;5014937;28;20829;-71
2023/07/14 15:03:14;;;;;;;0.70;0.20;;;29.80;1.00;;;;;;5014041;28;20537;-72
2023/07/14 15:05:43;;;;;;;0.70;0.10;;;29.90;1.00;;;;;;5014700;28;20484;-72
2023/07/14 15:08:12;;;;;;;0.70;0.20;;;29.90;1.00;;;;;;5014434;28;20537;-71
2023/07/14 15:10:41;;;;;;;0.70;0.20;;;29.90;1.00;;;;;;5020646;28;20461;-71
2023/07/14 15:13:15;;;;;;;0.70;0.10;;;30.00;1.00;;;;;;5034493;28;20488;-71
2023/07/14 15:15:45;;;;;;;0.70;0.10;;;30.10;1.00;;;;;;5034637;28;20442;-72
2023/07/14 15:18:15;;;;;;;0.70;0.20;;;30.30;1.00;;;;;;5014585;28;20487;-72
2023/07/14 15:20:43;;;;;;;0.80;0.30;;;30.40;1.00;;;;;;5012551;28;20471;-72
2023/07/14 15:23:12;;;;;;;0.70;0.20;;;30.50;1.00;;;;;;5014144;28;20447;-72
2023/07/14 15:25:45;;;;;;;0.83;0.30;;;30.50;1.00;;;;;;5013889;28;20551;-71
2023/07/14 15:28:16;;;;;;;0.70;0.10;;;30.60;1.00;;;;;;5016339;28;20885;-71
2023/07/14 15:30:44;;;;;;;0.70;0.23;;;30.70;1.00;;;;;;5024646;28;20482;-71
2023/07/14 15:33:16;;;;;;;0.70;0.20;;;30.70;1.00;;;;;;5014245;28;20513;-72
2023/07/14 15:35:45;;;;;;;0.70;0.10;;;30.90;1.00;;;;;;5017153;28;20454;-71
2023/07/14 15:38:24;;;;;;;1.40;0.97;;;30.90;1.00;;;;;;5015400;28;20451;-72
2023/07/14 15:40:53;;;;;;;0.70;0.20;;;31.10;1.00;;;;;;5014345;28;20717;-72
2023/07/14 15:43:23;;;;;;;2.00;0.40;;;31.10;1.00;;;;;;5021840;28;20455;-73
2023/07/14 15:45:55;;;;;;;0.70;0.20;;;31.10;1.00;;;;;;5013249;28;21090;-72
2023/07/14 15:48:30;;;;;;;2.70;0.77;;;31.10;1.00;;;;;;5025021;28;20442;-71
2023/07/14 15:51:16;;;;;;;0.70;0.20;;;31.10;1.00;;;;;;5031071;28;20946;-73
2023/07/14 15:53:45;;;;;;;1.57;0.60;;;;;;;;;;5025382;28;20442;-71
2023/07/14 15:56:17;;;;;;;1.33;0.30;;;31.40;1.00;;;;;;5024024;28;20494;-72
2023/07/14 15:58:45;;;;;;;0.70;0.20;;;31.60;1.00;;;;;;5021006;28;20438;-71
2023/07/14 16:01:15;;;;;;;0.70;0.33;;;31.70;1.00;;;;;;5018467;28;20467;-72
2023/07/14 16:03:48;;;;;;;0.70;0.10;;;31.70;1.00;;;;;;5018868;28;20461;-74
2023/07/14 16:06:18;;;;;;;0.80;0.20;;;31.80;1.00;;;;;;5011929;28;20917;-75
2023/07/14 16:08:48;;;;;;;0.70;0.20;;;31.80;1.00;;;;;;5014959;28;20455;-74
2023/07/14 16:11:20;;;;;;;0.70;0.20;;;31.70;1.00;;;;;;5022001;28;20463;-72
2023/07/14 16:13:48;;;;;;;0.70;0.20;;;31.80;1.00;;;;;;5019885;28;20447;-72
2023/07/14 16:16:16;;;;;;;1.10;0.23;;;31.80;1.00;;;;;;5015977;28;20435;-72
2023/07/14 16:18:47;;;;;;;0.70;0.20;;;31.90;1.00;;;;;;5030821;28;20519;-72
2023/07/14 16:21:23;;;;;;;0.97;0.77;;;32.00;1.00;;;;;;5033947;23;20927;-70
2023/07/14 16:23:53;;;;;;;0.70;0.20;;;32.00;1.00;;;;;;5011742;28;20444;-70
2023/07/14 16:26:22;;;;;;;0.70;0.10;;;32.10;1.00;;;;;;5010394;28;20526;-68
2023/07/14 16:28:51;;;;;;;0.70;0.20;;;32.20;1.00;;;;;;5019824;28;20574;-71
2023/07/14 16:31:20;;;;;;;0.70;0.10;;;;;;;;;;4997265;28;20468;-71
2023/07/14 16:33:48;;;;;;;0.70;0.20;;;32.20;1.00;;;;;;4988911;28;20452;-71
2023/07/14 16:36:21;;;;;;;0.70;0.20;;;32.20;1.00;;;;;;4994200;28;20436;-72
2023/07/14 16:38:49;;;;;;;0.70;0.20;;;32.10;1.00;;;;;;5001595;28;20486;-70
2023/07/14 16:41:18;;;;;;;0.70;0.20;;;32.20;1.00;;;;;;4978141;28;20520;-71
2023/07/14 16:43:47;;;;;;;0.70;0.20;;;32.30;1.00;;;;;;4988113;28;20457;-69
2023/07/14 16:46:14;;;;;;;0.70;0.20;;;32.50;1.00;;;;;;4992064;28;20478;-70
2023/07/14 16:48:43;;;;;;;0.70;0.20;;;32.50;1.00;;;;;;4992380;28;20456;-71
2023/07/14 16:51:13;;;;;;;0.70;0.10;;;32.70;1.00;;;;;;4991254;28;20551;-70
2023/07/14 16:53:43;;;;;;;0.70;0.30;;;32.80;1.00;;;;;;4998109;28;20467;-70
2023/07/14 16:56:12;;;;;;;0.70;0.20;;;32.90;1.00;;;;;;4993265;28;20441;-70
2023/07/14 16:58:41;;;;;;;0.70;0.20;;;33.20;1.00;;;;;;4991789;28;20962;-69
2023/07/14 17:01:16;;;;;;;0.70;0.30;;;33.20;1.00;;;;;;4993285;28;20549;-71
2023/07/14 17:03:44;;;;;;;0.70;0.20;;;33.30;1.00;;;;;;4993383;28;20451;-70
2023/07/14 17:06:13;;;;;;;0.70;0.20;;;33.40;1.00;;;;;;4994347;28;20483;-71
2023/07/14 17:08:44;;;;;;;0.70;0.20;;;33.40;1.00;;;;;;4993932;28;20452;-71
2023/07/14 17:11:12;;;;;;;0.70;0.30;;;33.40;1.00;;;;;;4984831;28;20460;-70
2023/07/14 17:13:41;;;;;;;0.70;0.20;;;33.40;1.00;;;;;;4993885;28;20977;-70
2023/07/14 17:16:12;;;;;;;0.70;0.17;;;33.50;1.00;;;;;;4995608;28;20444;-70
2023/07/14 17:18:41;;;;;;;0.70;0.20;;;33.50;1.00;;;;;;4996561;28;20452;-71
2023/07/14 17:21:12;;;;;;;1.23;1.13;;;33.50;1.00;;;;;;4997870;28;20491;-69
2023/07/14 17:23:40;;;;;;;0.70;0.20;;;33.50;1.00;;;;;;4999586;28;20463;-70